Главная страница
METAR-TAF:

METAR-TAF

Аэропорты :

Sussex Airport

Sussex, Нью-Джерси, США

широта: 41-12-01N, долгота: 074-37-23W, высота над уровнем моря: 128 м

Текущие метеонаблюдения

Эта сводка был подготовлена 34 минут назад, в 10:53 UTC
Штиль
Температура 7°C
Влажность 93%
Давление 1016 hPa
Видимость: 12.9 км
ясное небо

METAR: KFWN 241053Z AUTO 00000KT 8SM CLR 07/06 A2999 RMK AO2 SLP155 T00720061

Время: 07:27 (11:27 UTC)


TAF: отсутствует

Метеонаблюдения и прогнозы для более 4000 аэропортов (сводки METAR и TAF).

Имеющиеся станции представлены на карте желтыми и красными точками.

Чтобы увидеть название станции, наведите на нее мышь.

Затем щелкните, чтобы увидеть метеонаблюдения и метеопрогнозы.

Управление картой: чтобы увеличить масштаб, щелкните зеленые кнопки с черным крестиком; чтобы уменьшить масштаб, щелкните зеленую кнопку с тире; для просмотра соседних карт щелкайте зеленые стрелки.


METAR-TAF: